createdAt,value
2023-02-01T15:29:26.231Z,45
2023-02-01T15:34:43.532Z,46
2023-02-01T15:40:00.857Z,46
2023-02-01T15:44:06.829Z,48
2023-02-01T19:54:04.798Z,93
2023-02-01T19:59:22.852Z,89
2023-02-01T20:04:36.577Z,92
2023-02-01T20:09:53.416Z,92
2023-02-01T20:15:10.016Z,93
2023-02-01T20:20:26.473Z,88
2023-02-01T20:25:44.440Z,92
2023-02-01T20:31:01.137Z,94
2023-02-01T20:36:17.966Z,95
2023-02-01T20:57:35.823Z,99
2023-02-01T21:02:53.050Z,101
2023-02-01T21:08:10.017Z,100
2023-02-01T21:13:26.570Z,93
2023-02-01T21:18:43.803Z,100
2023-02-01T21:24:00.288Z,94
2023-02-01T21:29:16.693Z,92
2023-02-01T21:34:33.891Z,93
2023-02-01T21:39:50.486Z,86
2023-02-01T21:45:54.220Z,91
2023-02-01T21:51:11.365Z,89
2023-02-01T21:56:28.436Z,85
2023-02-01T22:01:44.902Z,85
2023-02-01T22:07:01.741Z,90
2023-02-01T22:12:18.991Z,84
2023-02-01T22:17:35.900Z,85
2023-02-01T22:22:53.069Z,82
2023-02-01T22:28:33.070Z,79
2023-02-01T22:33:27.063Z,81
2023-02-01T22:38:43.929Z,78
2023-02-01T22:44:00.209Z,69
2023-02-01T22:49:17.304Z,74
2023-02-01T22:54:33.299Z,68
2023-02-01T22:59:50.457Z,70
2023-02-01T23:05:07.008Z,63
2023-02-01T23:10:23.808Z,68
2023-02-01T23:15:40.085Z,66
2023-02-01T23:20:57.183Z,68
2023-02-01T23:26:13.998Z,70
2023-02-01T23:31:30.403Z,64
2023-02-01T23:36:46.958Z,66
2023-02-01T23:42:03.206Z,66
2023-02-01T23:47:20.468Z,65
2023-02-01T23:52:36.934Z,64
2023-02-01T23:57:54.220Z,67
